Time;durP1;ratioP1;P1;durP2;ratioP2;P2;SDS_P1;SDS_P2;PMS_P1;PMS_P2;Temp;Humidity;BMP_temperature;BMP_pressure;BME280_temperature;BME280_humidity;BME280_pressure;Samples;Min_cycle;Max_cycle;Signal;HPM_P1;HPM_P2
2024/02/06 00:05:43;;;;;;;5.60;1.60;;;;;;;7.12;76.61;98234.48;104397;1270;61226;-63
2024/02/06 00:09:05;;;;;;;4.80;1.20;;;;;;;7.22;74.92;98244.77;104279;1254;59886;-63
2024/02/06 00:11:45;;;;;;;8.20;1.60;;;;;;;7.33;73.14;98246.44;105153;1257;73355;-63
2024/02/06 00:14:58;;;;;;;5.10;1.60;;;;;;;7.34;71.83;98244.84;105377;1254;69167;-62
2024/02/06 00:18:12;;;;;;;3.20;1.40;;;;;;;7.10;73.10;98246.08;104332;1254;72840;-63
2024/02/06 00:21:27;;;;;;;3.00;1.10;;;;;;;6.95;73.69;98250.47;105301;1257;61605;-62
2024/02/06 00:28:27;;;;;;;2.40;1.10;;;;;;;7.18;72.88;98238.17;104679;1256;73691;-62
2024/02/06 00:35:29;;;;;;;4.30;1.30;;;;;;;7.16;71.10;98231.65;105042;1257;72993;-62
2024/02/06 00:45:27;;;;;;;3.00;1.40;;;;;;;6.87;73.02;98234.88;104559;1254;73501;-63
2024/02/06 00:48:39;;;;;;;4.30;1.20;;;;;;;6.76;72.85;98241.17;104779;1259;69188;-63
2024/02/06 00:51:51;;;;;;;4.20;1.40;;;;;;;6.79;73.31;98236.81;104792;1254;72450;-63
2024/02/06 00:55:03;;;;;;;6.50;2.30;;;;;;;6.72;73.07;98238.22;104601;1254;61016;-63
2024/02/06 00:58:16;;;;;;;4.40;1.40;;;;;;;6.63;73.32;98236.06;104612;1255;60537;-63
2024/02/06 01:01:28;;;;;;;3.50;1.80;;;;;;;6.58;74.13;98234.86;104752;1256;73707;-63
2024/02/06 01:04:40;;;;;;;3.70;1.30;;;;;;;6.43;75.58;98237.88;104885;1253;68102;-63
2024/02/06 01:07:58;;;;;;;4.70;1.70;;;;;;;6.42;76.10;98236.36;104416;1255;72474;-63
2024/02/06 01:14:41;;;;;;;7.00;1.70;;;;;;;6.74;73.38;98224.35;104989;1252;60863;-63
2024/02/06 01:17:54;;;;;;;3.90;1.70;;;;;;;6.78;72.59;98222.73;104970;1253;73682;-63
2024/02/06 01:21:06;;;;;;;3.20;1.70;;;;;;;6.83;72.47;98219.36;104587;1263;69214;-63
2024/02/06 01:24:23;;;;;;;3.90;1.40;;;;;;;6.87;71.78;98221.61;104376;1260;73866;-63
2024/02/06 01:27:36;;;;;;;2.80;1.50;;;;;;;6.74;72.13;98232.02;104668;1261;60679;-63
2024/02/06 01:30:48;;;;;;;4.70;1.90;;;;;;;6.79;71.54;98238.23;104671;1252;60537;-66
2024/02/06 01:34:00;;;;;;;5.50;1.90;;;;;;;6.71;72.59;98233.90;104435;1270;73652;-63
2024/02/06 01:37:14;;;;;;;5.30;1.60;;;;;;;6.33;74.69;98233.65;104366;1270;69097;-62
2024/02/06 01:40:26;;;;;;;5.20;1.70;;;;;;;6.11;77.82;98239.06;104826;1254;72562;-62
2024/02/06 01:43:44;;;;;;;4.00;1.70;;;;;;;6.13;78.84;98237.40;105413;1257;61735;-63
2024/02/06 01:50:46;;;;;;;3.90;1.70;;;;;;;6.07;79.71;98232.98;104545;1260;73806;-64
2024/02/06 01:57:46;;;;;;;5.10;2.30;;;;;;;5.97;81.30;98234.65;105043;1254;72922;-62
2024/02/06 02:00:58;;;;;;;4.60;1.80;;;;;;;6.02;81.37;98239.45;104378;1254;60943;-62
2024/02/06 02:04:10;;;;;;;6.70;1.50;;;;;;;6.14;80.30;98241.02;104536;1256;60559;-63
2024/02/06 02:11:10;;;;;;;7.40;2.80;;;;;;;6.26;76.93;98243.71;105552;1258;69130;-68
2024/02/06 02:18:08;;;;;;;6.90;1.90;;;;;;;5.83;82.19;98250.75;104768;1254;60981;-63
2024/02/06 02:21:17;;;;;;;5.20;1.60;;;;;;;5.85;82.96;98256.91;106299;1253;60584;-63
2024/02/06 02:24:29;;;;;;;8.20;2.20;;;;;;;5.86;81.68;98259.31;104993;1255;73724;-63
2024/02/06 02:32:01;;;;;;;3.80;1.80;;;;;;;5.86;81.41;98260.36;104334;1257;74058;-63
2024/02/06 02:35:14;;;;;;;5.70;2.20;;;;;;;6.20;78.73;98258.13;104526;1254;60600;-63
2024/02/06 02:38:29;;;;;;;5.10;1.80;;;;;;;6.14;76.63;98265.90;104765;1253;60467;-63
2024/02/06 02:46:03;;;;;;;5.20;2.30;;;;;;;5.75;79.83;98275.63;105024;1252;70015;-64
2024/02/06 02:49:15;;;;;;;7.40;1.90;;;;;;;5.74;80.51;98273.59;104722;1260;72513;-63
2024/02/06 02:52:02;;;;;;;3.70;1.40;;;;;;;5.79;79.92;98266.58;105117;1254;61148;-62
2024/02/06 02:55:20;;;;;;;8.20;1.80;;;;;;;5.71;80.42;98268.32;105067;1255;60836;-62
2024/02/06 02:58:34;;;;;;;4.60;1.50;;;;;;;5.77;79.66;98265.79;104705;1264;73654;-61
2024/02/06 03:09:37;;;;;;;3.90;1.70;;;;;;;6.25;74.66;98261.73;105128;1254;61599;-62
2024/02/06 03:12:49;;;;;;;5.00;1.70;;;;;;;6.31;74.19;98260.72;104912;1256;60688;-62
2024/02/06 03:16:01;;;;;;;7.30;1.60;;;;;;;6.32;73.41;98257.71;105046;1257;73047;-62
2024/02/06 03:19:13;;;;;;;4.70;1.90;;;;;;;6.26;73.20;98255.04;104408;1270;69151;-62
2024/02/06 03:22:26;;;;;;;3.80;1.40;;;;;;;6.14;73.81;98257.00;104719;1256;73379;-62
2024/02/06 03:25:38;;;;;;;6.40;1.60;;;;;;;7.62;64.97;98253.30;104435;1254;60685;-63
2024/02/06 03:28:51;;;;;;;4.50;1.30;;;;;;;7.69;62.29;98254.34;105192;1253;60662;-63
2024/02/06 03:32:03;;;;;;;3.80;1.60;;;;;;;6.84;65.83;98263.39;104762;1256;73682;-63
2024/02/06 03:35:16;;;;;;;6.30;1.70;;;;;;;6.62;69.51;98256.98;104752;1252;68448;-63
2024/02/06 03:38:29;;;;;;;6.40;1.50;;;;;;;6.89;67.40;98255.48;104595;1254;73181;-63
2024/02/06 03:41:40;;;;;;;6.80;1.80;;;;;;;6.83;65.74;98256.52;104551;1259;60966;-63
2024/02/06 03:44:55;;;;;;;8.00;1.70;;;;;;;6.96;64.66;98250.92;104904;1256;60555;-63
2024/02/06 03:48:08;;;;;;;2.30;1.60;;;;;;;6.85;64.73;98254.09;104519;1269;72807;-63
2024/02/06 03:50:36;;;;;;;7.20;1.70;;;;;;;6.53;65.81;98256.91;104999;1258;69152;-62
2024/02/06 03:53:48;;;;;;;3.50;1.30;;;;;;;6.44;67.37;98258.34;104582;1275;72884;-61
2024/02/06 04:01:19;;;;;;;5.40;1.50;;;;;;;6.84;64.10;98259.75;104291;1260;61675;-61
2024/02/06 04:11:54;;;;;;;4.40;1.30;;;;;;;7.01;62.90;98257.13;104885;1254;72410;-62
2024/02/06 04:33:02;;;;;;;4.40;1.30;;;;;;;6.99;63.34;98263.02;104993;1253;60596;-63
2024/02/06 04:36:17;;;;;;;6.10;1.60;;;;;;;6.97;64.02;98256.47;104577;1257;60440;-63
2024/02/06 04:39:29;;;;;;;3.80;1.50;;;;;;;7.00;64.22;98254.25;104840;1259;73697;-62
2024/02/06 04:42:41;;;;;;;7.00;1.80;;;;;;;7.04;64.24;98248.48;105289;1259;69730;-63
2024/02/06 04:45:53;;;;;;;5.40;1.40;;;;;;;6.94;65.07;98258.05;105040;1259;72512;-63
2024/02/06 04:49:05;;;;;;;5.60;1.50;;;;;;;6.95;65.46;98264.95;104898;1255;60549;-64
2024/02/06 04:52:17;;;;;;;3.10;1.40;;;;;;;7.00;66.10;98260.28;104883;1259;60584;-63
2024/02/06 04:54:54;;;;;;;7.20;2.10;;;;;;;6.95;67.15;98270.35;104882;1258;73294;-63
2024/02/06 04:58:06;;;;;;;5.50;1.70;;;;;;;6.74;69.36;98278.34;105149;1260;69207;-63
2024/02/06 05:01:18;;;;;;;2.80;1.50;;;;;;;6.73;71.26;98279.08;105055;1254;72391;-64
2024/02/06 05:04:33;;;;;;;3.10;1.60;;;;;;;6.53;74.85;98281.61;104910;1257;60611;-64
2024/02/06 05:07:45;;;;;;;6.20;1.90;;;;;;;6.70;74.32;98282.18;106282;1259;60387;-64
2024/02/06 05:10:32;;;;;;;4.60;1.60;;;;;;;6.87;74.92;98281.91;105022;1258;74045;-63
2024/02/06 05:13:44;;;;;;;6.80;2.00;;;;;;;6.95;74.61;98285.34;104831;1258;69176;-64
2024/02/06 05:20:45;;;;;;;4.40;1.70;;;;;;;6.99;74.93;98284.58;105045;1256;60566;-65
2024/02/06 05:27:05;;;;;;;3.60;1.60;;;;;;;7.10;75.94;98299.24;104318;1264;72755;-64
2024/02/06 05:34:40;;;;;;;9.10;1.90;;;;;;;7.41;73.69;98291.00;104922;1257;74069;-63
2024/02/06 05:41:54;;;;;;;5.80;2.00;;;;;;;6.81;79.24;98288.61;104637;1253;60517;-63
2024/02/06 05:44:32;;;;;;;4.90;2.10;;;;;;;6.71;85.12;98282.31;105063;1254;73753;-63
2024/02/06 05:47:44;;;;;;;5.70;2.10;;;;;;;6.96;84.47;98283.33;104508;1259;68333;-63
2024/02/06 05:50:56;;;;;;;5.40;2.00;;;;;;;6.78;91.86;98290.53;105052;1259;72070;-62
2024/02/06 05:57:06;;;;;;;6.00;1.90;;;;;;;6.64;95.21;98288.91;105517;1253;60467;-66
2024/02/06 05:59:56;;;;;;;4.80;2.10;;;;;;;6.52;99.59;98293.52;105202;1253;74012;-62
2024/02/06 06:03:08;;;;;;;5.40;1.80;;;;;;;6.70;98.86;98296.45;104341;1267;69224;-62
2024/02/06 06:06:20;;;;;;;4.20;1.40;;;;;;;6.62;98.83;98294.79;104836;1259;72355;-62
2024/02/06 06:09:33;;;;;;;5.20;2.10;;;;;;;6.52;100.00;98296.64;104776;1257;60520;-61
2024/02/06 06:12:45;;;;;;;5.80;2.50;;;;;;;6.48;100.00;98299.10;104352;1259;60652;-61
2024/02/06 06:15:57;;;;;;;5.50;1.60;;;;;;;6.44;100.00;98295.64;104607;1259;73674;-62
2024/02/06 06:19:09;;;;;;;5.80;2.40;;;;;;;6.36;100.00;98304.19;104646;1269;69543;-62
2024/02/06 06:22:06;;;;;;;10.20;2.40;;;;;;;6.90;100.00;98303.50;104773;1259;72218;-62
2024/02/06 07:39:33;;;;;;;9.80;3.30;;;;;;;6.56;100.00;98311.80;101808;1291;619959;-61
2024/02/06 07:46:27;;;;;;;5.90;2.30;;;;;;;7.86;100.00;98305.98;104433;1266;60156;-61
2024/02/06 07:49:38;;;;;;;3.60;2.40;;;;;;;8.03;100.00;98304.73;104309;1265;72323;-60
2024/02/06 07:52:49;;;;;;;2.90;1.90;;;;;;;8.13;100.00;98307.45;103569;1271;567268;-60
2024/02/06 07:56:04;;;;;;;4.60;2.30;;;;;;;8.16;100.00;98307.47;103839;1275;72925;-64
2024/02/06 07:59:16;;;;;;;4.20;2.60;;;;;;;8.06;100.00;98303.50;104394;1262;61766;-60
2024/02/06 08:10:56;;;;;;;4.70;2.40;;;;;;;8.09;100.00;98301.91;104516;1263;67960;-60
2024/02/06 08:14:07;;;;;;;4.70;2.40;;;;;;;8.15;100.00;98303.54;104490;1262;73085;-60
2024/02/06 08:21:12;;;;;;;5.20;3.20;;;;;;;8.28;100.00;98305.45;104454;1268;59769;-60
2024/02/06 08:24:30;;;;;;;4.20;2.80;;;;;;;8.24;100.00;98306.01;104246;1262;73292;-60
2024/02/06 08:31:33;;;;;;;3.10;2.80;;;;;;;8.27;100.00;98305.53;103890;1265;73119;-60
2024/02/06 08:34:51;;;;;;;4.10;3.30;;;;;;;8.31;100.00;98306.17;104692;1267;61499;-61
2024/02/06 08:38:03;;;;;;;5.10;3.40;;;;;;;8.35;100.00;98302.45;104983;1262;59973;-61
2024/02/06 08:41:14;;;;;;;4.10;3.60;;;;;;;8.35;100.00;98301.91;104188;1263;73435;-60
2024/02/06 08:43:41;;;;;;;6.40;4.20;;;;;;;8.27;100.00;98299.57;103865;1266;69687;-60
2024/02/06 08:47:06;;;;;;;4.80;4.30;;;;;;;8.31;100.00;98303.55;103995;1268;72917;-60
2024/02/06 08:50:20;;;;;;;6.40;4.70;;;;;;;8.57;100.00;98303.52;104359;1268;61310;-60
2024/02/06 08:53:31;;;;;;;6.30;5.70;;;;;;;8.45;100.00;98300.20;104879;1264;60941;-62
2024/02/06 08:56:02;;;;;;;6.50;5.80;;;;;;;8.35;100.00;98299.44;105900;1265;72981;-59
2024/02/06 08:59:17;;;;;;;7.10;5.60;;;;;;;8.10;100.00;98302.59;105006;1263;68357;-59
2024/02/06 09:02:29;;;;;;;6.10;5.50;;;;;;;8.16;100.00;98302.99;105890;1262;72810;-59
2024/02/06 09:05:27;;;;;;;6.40;4.50;;;;;;;8.39;100.00;98306.44;104559;1263;61584;-63
2024/02/06 09:08:39;;;;;;;4.20;3.80;;;;;;;8.46;100.00;98304.36;104267;1272;60745;-62
2024/02/06 09:11:51;;;;;;;4.20;3.80;;;;;;;8.60;100.00;98301.80;104482;1263;73085;-62
2024/02/06 09:15:02;;;;;;;5.50;3.80;;;;;;;8.54;100.00;98296.16;104366;1265;69868;-63
2024/02/06 09:21:18;;;;;;;5.10;4.40;;;;;;;8.60;100.00;98293.59;104176;1266;61601;-66
2024/02/06 09:24:30;;;;;;;4.00;3.60;;;;;;;8.31;100.00;98294.95;105012;1262;60626;-62
2024/02/06 09:27:43;;;;;;;4.80;3.70;;;;;;;8.35;100.00;98293.36;104588;1266;73045;-61
2024/02/06 09:31:01;;;;;;;5.60;3.70;;;;;;;8.50;100.00;98286.80;105471;1262;69620;-61
2024/02/06 09:33:57;;;;;;;4.10;3.70;;;;;;;8.22;100.00;98286.22;104842;1262;72153;-61
2024/02/06 09:40:58;;;;;;;4.00;2.80;;;;;;;7.86;100.00;98286.23;104104;1262;60638;-60
2024/02/06 09:44:09;;;;;;;2.90;2.60;;;;;;;8.06;100.00;98284.29;104297;1262;74070;-61
2024/02/06 09:47:25;;;;;;;4.00;2.90;;;;;;;7.98;100.00;98281.23;104556;1266;69683;-63
2024/02/06 09:50:39;;;;;;;3.80;3.00;;;;;;;7.95;100.00;98277.89;104962;1262;72716;-63
2024/02/06 09:53:50;;;;;;;7.10;2.70;;;;;;;7.76;100.00;98276.28;105125;1262;61430;-63
2024/02/06 09:57:01;;;;;;;3.30;2.70;;;;;;;7.75;100.00;98270.41;104397;1263;60240;-62
2024/02/06 10:00:13;;;;;;;4.90;2.80;;;;;;;7.76;100.00;98262.52;104156;1263;73518;-63
2024/02/06 10:03:25;;;;;;;3.30;2.70;;;;;;;7.69;100.00;98263.58;104502;1262;70149;-63
2024/02/06 10:06:36;;;;;;;3.50;2.50;;;;;;;7.87;100.00;98256.52;104164;1278;71430;-63
2024/02/06 10:13:36;;;;;;;2.40;2.20;;;;;;;7.92;100.00;98258.54;104500;1255;60021;-61
2024/02/06 10:21:07;;;;;;;2.60;2.30;;;;;;;8.19;100.00;98263.50;104881;1260;70774;-61
2024/02/06 10:28:13;;;;;;;3.20;2.30;;;;;;;8.30;100.00;98251.59;104531;1257;61132;-61
2024/02/06 10:31:27;;;;;;;4.00;2.70;;;;;;;8.36;100.00;98247.71;104365;1259;60797;-63
2024/02/06 10:38:11;;;;;;;4.50;2.70;;;;;;;8.62;100.00;98240.41;104550;1259;69828;-61
2024/02/06 10:41:22;;;;;;;3.60;2.60;;;;;;;8.70;100.00;98238.14;104715;1263;72820;-59
2024/02/06 10:48:22;;;;;;;3.50;3.00;;;;;;;8.97;100.00;98242.55;104154;1257;59758;-59
2024/02/06 10:51:33;;;;;;;3.60;2.80;;;;;;;9.04;100.00;98244.27;104403;1256;72747;-59
2024/02/06 10:54:48;;;;;;;3.30;3.00;;;;;;;8.94;100.00;98243.95;104669;1260;69552;-59
2024/02/06 10:57:59;;;;;;;4.30;3.10;;;;;;;8.98;100.00;98248.09;105347;1256;73299;-59
2024/02/06 11:01:10;;;;;;;3.50;2.90;;;;;;;8.84;100.00;98241.22;104654;1261;61126;-60
2024/02/06 11:04:21;;;;;;;4.00;2.80;;;;;;;8.70;100.00;98246.06;104569;1259;59999;-59
2024/02/06 11:07:05;;;;;;;4.30;2.80;;;;;;;8.25;100.00;98240.67;105417;1256;73271;-58
2024/02/06 11:09:56;;;;;;;3.40;2.80;;;;;;;8.16;100.00;98237.83;104417;1259;69725;-59
2024/02/06 11:13:07;;;;;;;3.00;2.70;;;;;;;8.25;100.00;98238.55;105120;1260;73261;-59
2024/02/06 11:20:09;;;;;;;3.60;3.20;;;;;;;8.41;100.00;98238.76;105102;1258;60637;-60
2024/02/06 11:23:21;;;;;;;4.70;3.20;;;;;;;8.61;100.00;98237.30;104595;1262;73379;-60
2024/02/06 11:26:32;;;;;;;4.50;3.50;;;;;;;8.69;100.00;98238.24;104542;1259;69573;-59
2024/02/06 11:33:31;;;;;;;6.80;5.70;;;;;;;8.95;100.00;98229.52;105133;1258;61212;-60
2024/02/06 11:39:55;;;;;;;5.70;4.50;;;;;;;9.11;100.00;98232.98;105006;1262;73046;-66
2024/02/06 11:47:31;;;;;;;5.20;3.70;;;;;;;8.96;100.00;98231.08;104348;1265;72427;-66
2024/02/06 11:50:08;;;;;;;3.70;3.40;;;;;;;9.12;100.00;98229.27;104559;1263;61158;-65
2024/02/06 12:01:06;;;;;;;3.90;3.50;;;;;;;9.15;100.00;98227.48;104455;1261;69893;-61
2024/02/06 12:04:24;;;;;;;5.00;4.10;;;;;;;9.15;100.00;98212.48;104478;1273;71538;-61
2024/02/06 12:11:25;;;;;;;5.30;4.50;;;;;;;9.50;100.00;98212.98;104334;1260;60004;-60
2024/02/06 12:21:58;;;;;;;15.50;12.70;;;;;;;9.64;99.45;98199.55;104822;1260;72577;-59
2024/02/06 12:25:09;;;;;;;3.80;3.50;;;;;;;9.63;99.44;98202.06;105030;1256;60923;-60
2024/02/06 12:28:20;;;;;;;2.70;2.50;;;;;;;9.46;100.00;98197.14;104393;1256;60724;-58
2024/02/06 12:34:55;;;;;;;73.00;51.30;;;;;;;9.53;99.69;98204.57;104229;1259;69854;-59
2024/02/06 12:38:07;;;;;;;8.20;6.90;;;;;;;9.53;99.85;98205.63;104902;1256;72792;-60
2024/02/06 12:41:19;;;;;;;11.90;10.70;;;;;;;9.50;99.62;98202.48;104470;1260;60106;-60
2024/02/06 12:44:33;;;;;;;8.80;8.00;;;;;;;9.49;100.00;98198.52;104472;1268;60218;-59
2024/02/06 12:48:00;;;;;;;4.60;4.20;;;;;;;9.56;100.00;98199.16;104321;1260;72879;-59
2024/02/06 12:51:11;;;;;;;4.60;4.30;;;;;;;9.57;100.00;98201.01;104571;1260;70366;-59
2024/02/06 12:54:22;;;;;;;3.80;3.50;;;;;;;9.51;100.00;98193.19;104306;1257;72716;-59
2024/02/06 12:57:33;;;;;;;3.60;3.30;;;;;;;9.48;100.00;98190.95;104939;1256;60938;-59
2024/02/06 13:00:45;;;;;;;28.00;25.70;;;;;;;9.51;100.00;98181.29;104789;1256;60181;-60
2024/02/06 13:03:56;;;;;;;37.00;21.70;;;;;;;9.64;100.00;98184.01;104379;1278;72964;-59
2024/02/06 13:11:03;;;;;;;30.40;22.30;;;;;;;9.54;100.00;98191.23;104656;1260;72340;-59
2024/02/06 13:14:14;;;;;;;11.50;8.80;;;;;;;9.52;100.00;98202.21;104727;1260;60834;-59
2024/02/06 13:17:25;;;;;;;5.40;4.80;;;;;;;9.44;100.00;98193.39;104495;1260;60623;-59
2024/02/06 13:20:05;;;;;;;57.40;26.40;;;;;;;9.41;100.00;98189.41;104896;1257;72930;-58
2024/02/06 13:23:22;;;;;;;27.40;14.80;;;;;;;9.34;100.00;98179.36;104667;1259;70700;-58
2024/02/06 13:26:33;;;;;;;10.60;6.00;;;;;;;9.35;100.00;98176.48;104789;1258;73114;-62
2024/02/06 13:29:44;;;;;;;20.00;12.40;;;;;;;9.43;100.00;98178.62;104563;1254;61185;-61
2024/02/06 13:32:11;;;;;;;12.00;7.60;;;;;;;9.61;100.00;98176.77;104478;1278;60516;-61
2024/02/06 13:34:58;;;;;;;4.80;4.30;;;;;;;9.46;100.00;98171.80;104736;1259;74050;-62
2024/02/06 13:38:09;;;;;;;4.00;3.60;;;;;;;9.50;100.00;98170.86;105740;1256;68792;-61
2024/02/06 13:41:20;;;;;;;42.40;27.10;;;;;;;9.50;100.00;98161.36;106219;1259;74181;-61
2024/02/06 13:44:31;;;;;;;10.50;7.50;;;;;;;9.55;100.00;98165.80;105010;1260;61246;-62
2024/02/06 13:47:43;;;;;;;8.90;6.50;;;;;;;9.50;100.00;98167.66;104654;1260;60568;-63
2024/02/06 13:50:57;;;;;;;19.70;12.70;;;;;;;9.56;100.00;98160.33;105169;1257;73841;-62
2024/02/06 13:54:08;;;;;;;6.80;5.40;;;;;;;9.58;100.00;98158.26;104530;1259;69841;-62
2024/02/06 14:01:09;;;;;;;6.50;5.90;;;;;;;9.68;100.00;98154.33;105496;1259;61147;-63
2024/02/06 14:04:20;;;;;;;8.50;7.50;;;;;;;9.79;100.00;98148.41;104766;1259;60487;-64
2024/02/06 14:07:15;;;;;;;7.60;6.50;;;;;;;9.87;100.00;98144.74;104781;1257;73592;-62
2024/02/06 14:10:26;;;;;;;6.20;4.60;;;;;;;9.83;100.00;98146.18;105002;1259;69797;-60
2024/02/06 14:17:29;;;;;;;4.80;4.40;;;;;;;9.68;100.00;98162.88;105130;1259;60438;-62
2024/02/06 14:20:39;;;;;;;6.30;5.70;;;;;;;9.71;100.00;98151.16;106317;1255;60193;-62
2024/02/06 14:23:53;;;;;;;4.70;4.30;;;;;;;9.80;100.00;98150.45;104898;1259;73732;-62
2024/02/06 14:27:04;;;;;;;5.20;4.70;;;;;;;9.82;100.00;98163.06;105717;1260;69934;-61
2024/02/06 14:30:15;;;;;;;7.50;4.90;;;;;;;9.75;100.00;98160.53;104981;1266;72515;-61
2024/02/06 14:37:47;;;;;;;5.20;4.80;;;;;;;10.89;90.72;98154.52;105888;1259;60550;-61
2024/02/06 14:45:18;;;;;;;5.60;5.10;;;;;;;9.97;100.00;98147.23;105344;1257;70809;-59
2024/02/06 14:59:57;;;;;;;7.50;6.80;;;;;;;10.00;100.00;98144.11;105112;1257;75719;-60
2024/02/06 15:07:28;;;;;;;8.00;7.20;;;;;;;10.07;100.00;98140.67;105073;1266;74182;-60
2024/02/06 15:10:40;;;;;;;8.30;7.60;;;;;;;10.09;100.00;98144.70;104861;1260;61502;-60
2024/02/06 15:18:12;;;;;;;8.60;7.80;;;;;;;9.97;100.00;98147.64;104387;1261;75207;-62
2024/02/06 15:21:23;;;;;;;10.00;8.20;;;;;;;9.97;100.00;98148.88;104528;1268;70295;-57
2024/02/06 15:24:34;;;;;;;9.20;8.10;;;;;;;10.04;100.00;98157.63;105348;1258;71257;-57
2024/02/06 15:27:45;;;;;;;9.00;8.00;;;;;;;10.05;100.00;98153.05;105198;1260;60995;-60
2024/02/06 15:30:55;;;;;;;9.70;7.50;;;;;;;9.99;100.00;98153.23;105264;1255;60549;-58
2024/02/06 15:33:36;;;;;;;10.60;7.90;;;;;;;9.90;100.00;98148.23;105476;1254;74532;-58
2024/02/06 15:36:46;;;;;;;9.00;7.50;;;;;;;9.88;100.00;98150.42;105491;1255;69964;-60
2024/02/06 15:43:45;;;;;;;6.90;6.20;;;;;;;9.85;100.00;98160.58;104795;1254;60947;-61
2024/02/06 15:50:02;;;;;;;9.30;7.10;;;;;;;10.07;100.00;98156.23;104418;1257;72960;-62
2024/02/06 15:53:13;;;;;;;9.50;8.00;;;;;;;10.25;100.00;98158.78;105332;1253;68604;-61
2024/02/06 15:56:25;;;;;;;23.10;13.40;;;;;;;10.29;100.00;98153.07;104527;1256;72749;-61
2024/02/06 15:59:40;;;;;;;37.70;19.70;;;;;;;10.41;100.00;98154.56;105185;1256;60963;-61
2024/02/06 16:02:57;;;;;;;42.20;20.40;;;;;;;10.33;100.00;98150.38;104632;1256;60505;-61
2024/02/06 16:10:28;;;;;;;26.40;15.40;;;;;;;11.04;94.87;98143.38;104984;1255;68373;-61
2024/02/06 16:13:40;;;;;;;17.60;12.00;;;;;;;11.11;93.14;98140.60;105286;1251;72975;-61
2024/02/06 16:16:51;;;;;;;15.30;10.70;;;;;;;11.23;91.62;98143.64;104477;1271;61268;-61
2024/02/06 16:20:05;;;;;;;12.80;8.00;;;;;;;11.20;91.10;98139.79;104703;1267;60464;-64
2024/02/06 16:23:17;;;;;;;8.50;7.50;;;;;;;11.16;91.17;98134.63;104555;1257;74235;-65
2024/02/06 16:26:30;;;;;;;7.40;6.60;;;;;;;11.32;88.66;98137.04;105035;1259;69773;-64
2024/02/06 16:29:41;;;;;;;7.60;5.50;;;;;;;11.22;88.78;98133.70;107043;1251;72868;-64
2024/02/06 16:32:52;;;;;;;7.50;6.20;;;;;;;11.22;90.11;98135.98;105116;1251;61788;-62
2024/02/06 16:36:04;;;;;;;8.10;6.60;;;;;;;11.28;90.06;98132.59;104579;1257;60492;-65
2024/02/06 16:39:15;;;;;;;10.20;8.30;;;;;;;11.27;89.43;98137.19;105284;1256;76044;-62
2024/02/06 16:42:28;;;;;;;11.50;10.10;;;;;;;11.25;89.01;98138.75;105354;1254;70069;-62
2024/02/06 16:45:40;;;;;;;15.30;11.80;;;;;;;11.21;89.57;98125.20;104699;1256;72485;-61
2024/02/06 16:48:51;;;;;;;18.30;14.00;;;;;;;11.19;88.89;98118.34;105295;1254;60976;-61
2024/02/06 16:52:03;;;;;;;15.50;11.60;;;;;;;10.85;91.39;98133.23;104698;1269;62168;-62
2024/02/06 16:54:59;;;;;;;16.50;12.00;;;;;;;10.74;93.13;98110.87;104712;1252;73633;-62
2024/02/06 16:58:10;;;;;;;17.90;12.50;;;;;;;10.76;93.77;98119.28;105511;1254;70286;-62
2024/02/06 17:01:23;;;;;;;20.00;14.40;;;;;;;10.78;94.10;98117.58;106377;1255;73145;-62
2024/02/06 17:08:55;;;;;;;26.00;17.70;;;;;;;10.70;94.33;98116.73;104609;1257;60569;-61
2024/02/06 17:15:54;;;;;;;21.40;14.40;;;;;;;10.82;95.31;98099.59;104797;1253;69454;-61
2024/02/06 17:32:04;;;;;;;14.40;9.70;;;;;;;10.55;100.00;98109.15;105088;1253;73634;-61
2024/02/06 17:35:16;;;;;;;10.70;9.60;;;;;;;10.56;100.00;98112.42;104864;1254;68480;-62
2024/02/06 17:38:27;;;;;;;11.90;9.50;;;;;;;10.78;100.00;98112.16;104489;1257;73136;-65
2024/02/06 17:41:39;;;;;;;10.10;8.60;;;;;;;10.74;100.00;98109.80;104514;1258;60918;-62
2024/02/06 17:44:51;;;;;;;11.20;7.90;;;;;;;10.83;100.00;98105.88;105324;1254;61161;-64
2024/02/06 17:48:06;;;;;;;9.20;6.30;;;;;;;11.17;100.00;98101.29;105104;1253;74178;-67
2024/02/06 17:54:49;;;;;;;7.30;5.40;;;;;;;11.46;100.00;98089.77;105337;1257;73141;-62
2024/02/06 17:58:00;;;;;;;9.60;6.40;;;;;;;11.43;100.00;98084.02;105300;1252;60861;-62
2024/02/06 18:01:11;;;;;;;12.00;6.20;;;;;;;11.46;100.00;98077.99;106554;1254;60678;-60
2024/02/06 18:04:22;;;;;;;8.70;5.20;;;;;;;11.40;100.00;98073.85;105171;1261;73531;-60
2024/02/06 18:11:22;;;;;;;9.60;6.20;;;;;;;11.81;100.00;98070.73;104923;1253;72467;-59
2024/02/06 18:21:37;;;;;;;9.40;5.40;;;;;;;12.00;100.00;98073.04;106093;1254;74041;-61
2024/02/06 18:24:57;;;;;;;7.20;4.80;;;;;;;11.62;100.00;98077.38;105092;1254;70071;-61
2024/02/06 18:28:07;;;;;;;8.30;5.40;;;;;;;11.85;100.00;98079.46;105672;1253;72783;-62
2024/02/06 18:31:18;;;;;;;9.40;4.90;;;;;;;12.20;100.00;98084.45;104568;1267;60559;-61
2024/02/06 18:34:31;;;;;;;7.60;4.80;;;;;;;11.98;100.00;98083.39;105543;1251;60581;-61
2024/02/06 18:37:42;;;;;;;9.40;5.30;;;;;;;12.14;100.00;98083.81;105128;1252;74136;-59
2024/02/06 18:40:53;;;;;;;7.80;4.90;;;;;;;12.19;100.00;98082.39;105594;1253;70097;-60
2024/02/06 18:44:07;;;;;;;8.80;5.00;;;;;;;12.27;100.00;98083.55;104556;1252;72878;-60
2024/02/06 18:47:18;;;;;;;5.00;4.50;;;;;;;12.27;100.00;98086.21;104833;1256;61310;-60
2024/02/06 18:50:29;;;;;;;5.20;4.40;;;;;;;12.28;100.00;98090.52;104646;1256;60460;-60
2024/02/06 18:53:40;;;;;;;5.70;4.80;;;;;;;12.42;100.00;98090.67;104617;1262;74066;-60
2024/02/06 18:56:51;;;;;;;6.60;4.80;;;;;;;12.33;100.00;98087.80;105688;1255;69671;-59
2024/02/06 19:03:53;;;;;;;7.30;5.00;;;;;;;12.51;100.00;98093.52;104325;1257;60827;-60
2024/02/06 19:07:06;;;;;;;12.80;5.30;;;;;;;12.47;100.00;98092.92;104696;1257;60538;-60
2024/02/06 19:09:36;;;;;;;7.70;5.50;;;;;;;12.51;100.00;98090.91;104719;1257;73405;-59
2024/02/06 19:12:07;;;;;;;5.20;4.70;;;;;;;12.44;100.00;98085.23;106127;1251;68593;-61
2024/02/06 19:14:58;;;;;;;7.20;4.90;;;;;;;12.46;100.00;98083.75;104545;1267;71521;-60
2024/02/06 19:18:10;;;;;;;9.30;5.20;;;;;;;12.48;100.00;98084.27;104475;1259;61086;-62
2024/02/06 19:21:23;;;;;;;9.10;5.80;;;;;;;12.53;100.00;98073.57;104912;1253;60626;-59
2024/02/06 19:28:26;;;;;;;6.90;5.40;;;;;;;12.63;100.00;98070.52;104313;1267;69660;-60
2024/02/06 19:31:43;;;;;;;8.40;5.20;;;;;;;12.58;100.00;98069.84;105103;1252;72469;-60
2024/02/06 19:34:54;;;;;;;9.30;5.20;;;;;;;12.65;100.00;98067.36;104759;1257;61095;-60
2024/02/06 19:38:07;;;;;;;7.10;5.60;;;;;;;12.40;100.00;98065.23;104837;1252;60908;-60
2024/02/06 19:40:39;;;;;;;7.20;5.30;;;;;;;12.49;100.00;98067.53;104421;1253;73719;-60
2024/02/06 19:43:16;;;;;;;6.00;5.10;;;;;;;12.47;100.00;98068.72;104502;1262;70328;-60
2024/02/06 19:45:46;;;;;;;5.80;4.80;;;;;;;12.43;100.00;98068.51;104565;1256;73720;-59
2024/02/06 19:48:22;;;;;;;9.60;4.80;;;;;;;12.44;100.00;98070.37;105095;1256;61591;-60
2024/02/06 19:51:01;;;;;;;12.10;5.20;;;;;;;12.38;100.00;98066.79;104845;1252;60528;-60
2024/02/06 19:55:02;;;;;;;6.40;4.80;;;;;;;11.72;100.00;98064.86;101869;1289;600555;-62
2024/02/06 19:58:17;;;;;;;5.50;4.10;;;;;;;12.40;100.00;98059.75;104274;1266;63982;-60
2024/02/06 20:01:29;;;;;;;7.10;4.80;;;;;;;12.61;100.00;98059.00;104472;1269;59957;-60
2024/02/06 20:04:41;;;;;;;7.30;4.40;;;;;;;12.67;100.00;98051.23;103687;1282;72949;-60
2024/02/06 20:07:53;;;;;;;7.20;4.40;;;;;;;12.46;100.00;98053.52;104060;1267;69664;-60
2024/02/06 20:11:05;;;;;;;7.40;4.30;;;;;;;12.61;100.00;98051.66;103244;1267;71490;-60
2024/02/06 20:18:25;;;;;;;5.40;4.20;;;;;;;12.50;100.00;98055.31;104857;1267;60322;-61
2024/02/06 20:21:38;;;;;;;7.40;5.50;;;;;;;12.53;100.00;98055.95;103882;1263;72261;-60
2024/02/06 20:24:50;;;;;;;7.90;5.20;;;;;;;12.54;100.00;98052.02;104566;1264;68658;-60
2024/02/06 20:28:05;;;;;;;8.00;5.10;;;;;;;12.63;100.00;98041.09;104317;1267;71885;-61
2024/02/06 20:31:21;;;;;;;7.90;5.60;;;;;;;12.67;100.00;98040.15;104296;1264;60877;-60
2024/02/06 20:34:35;;;;;;;9.10;5.80;;;;;;;12.64;100.00;98032.95;103988;1266;59990;-60
2024/02/06 20:37:48;;;;;;;9.30;5.30;;;;;;;12.73;100.00;98028.63;104016;1264;71881;-60